Time;durP1;ratioP1;P1;durP2;ratioP2;P2;SDS_P1;SDS_P2;PMS_P1;PMS_P2;Temp;Humidity;BMP_temperature;BMP_pressure;BME280_temperature;BME280_humidity;BME280_pressure;Samples;Min_cycle;Max_cycle;Signal;HPM_P1;HPM_P2
2022/10/23 00:01:19;;;;;;;8.30;2.05;;;;;;;;;;5008770;28;20109;-72
2022/10/23 00:03:46;;;;;;;4.05;0.90;;;;;;;;;;5010710;28;20524;-72
2022/10/23 00:06:13;;;;;;;4.32;0.65;;;;;;;;;;5011365;28;20075;-71
2022/10/23 00:08:39;;;;;;;8.07;1.45;;;;;;;;;;4994601;28;20046;-71
2022/10/23 00:11:09;;;;;;;7.45;1.55;;;;;;;;;;5009599;28;20022;-72
2022/10/23 00:13:35;;;;;;;4.65;1.40;;;;;;;;;;5012578;28;20033;-72
2022/10/23 00:16:01;;;;;;;6.93;1.65;;;;;;;;;;5017316;28;20488;-72
2022/10/23 00:18:27;;;;;;;8.27;1.38;;;;;;;;;;5004707;28;20038;-72
2022/10/23 00:20:53;;;;;;;5.53;1.20;;;;;;;;;;5012344;28;20108;-72
2022/10/23 00:23:19;;;;;;;7.90;1.10;;;;;;;;;;5013816;28;20523;-72
2022/10/23 00:25:45;;;;;;;8.05;1.35;;;;;;;;;;5012176;28;20030;-71
2022/10/23 00:28:11;;;;;;;3.10;0.90;;;;;;;;;;5006511;28;20038;-72
2022/10/23 00:30:37;;;;;;;8.05;1.48;;;;;;;;;;5010713;28;20022;-71
2022/10/23 00:33:03;;;;;;;7.13;4.18;;;;;;;;;;5011773;28;20053;-72
2022/10/23 00:35:29;;;;;;;12.40;6.68;;;;;;;;;;5005051;28;21017;-72
2022/10/23 00:37:55;;;;;;;12.00;6.05;;;;;;;;;;4994370;28;20033;-72
2022/10/23 00:40:21;;;;;;;6.10;1.52;;;;;;;;;;5014236;28;20037;-72
2022/10/23 00:42:47;;;;;;;8.00;2.13;;;;;;;;;;5007129;28;20476;-72
2022/10/23 00:45:16;;;;;;;8.95;2.20;;;;;;;;;;5004007;28;20038;-72
2022/10/23 00:47:42;;;;;;;14.55;1.98;;;;;;;;;;5011186;28;20028;-72
2022/10/23 00:50:08;;;;;;;6.65;2.00;;;;;;;;;;5003185;28;20045;-72
2022/10/23 00:52:36;;;;;;;5.38;1.98;;;;;;;;;;5010098;28;20034;-72
2022/10/23 00:55:03;;;;;;;9.32;2.50;;;;;;;;;;5010605;28;20057;-72
2022/10/23 00:57:30;;;;;;;14.32;2.25;;;;;;;;;;5008530;28;20037;-72
2022/10/23 00:59:56;;;;;;;4.00;1.45;;;;;;;;;;5011310;28;20038;-72
2022/10/23 01:02:22;;;;;;;5.20;1.88;;;;;;;;;;5010261;28;20053;-71
2022/10/23 01:04:48;;;;;;;4.47;1.10;;;;;;;;;;5008296;28;20487;-72
2022/10/23 01:07:17;;;;;;;5.45;1.52;;;;;;;;;;5013488;28;20074;-72
2022/10/23 01:09:51;;;;;;;7.72;1.38;;;;;;;;;;5010133;28;20045;-72
2022/10/23 01:12:26;;;;;;;4.72;1.27;;;;;;;;;;5011145;28;20421;-72
2022/10/23 01:14:55;;;;;;;4.55;1.10;;;;;;;;;;4988155;28;20075;-72
2022/10/23 01:17:31;;;;;;;3.72;0.90;;;;;;;;;;5013439;28;20061;-72
2022/10/23 01:19:57;;;;;;;8.23;1.02;;;;;;;;;;5016300;28;20056;-72
2022/10/23 01:22:38;;;;;;;2.90;0.70;;;;;;;;;;5008544;28;20033;-72
2022/10/23 01:25:19;;;;;;;2.72;0.70;;;;;;;;;;5010768;28;20038;-72
2022/10/23 01:27:47;;;;;;;7.40;1.02;;;;;;;;;;5010862;28;20033;-72
2022/10/23 01:30:16;;;;;;;3.78;0.80;;;;;;;;;;5004521;28;20084;-72
2022/10/23 01:32:47;;;;;;;4.82;0.73;;;;;;;;;;5010403;28;20034;-71
2022/10/23 01:35:13;;;;;;;4.93;0.90;;;;;;;;;;5010091;28;20802;-72
2022/10/23 01:37:42;;;;;;;3.95;1.10;;;;;;;;;;5013369;28;20044;-71
2022/10/23 01:40:11;;;;;;;4.57;0.70;;;;;;;;;;5011715;28;20026;-72
2022/10/23 01:42:40;;;;;;;6.45;0.95;;;;;;;;;;5010954;28;20432;-72
2022/10/23 01:45:10;;;;;;;3.42;0.93;;;;;;;;;;5008228;28;20042;-71
2022/10/23 01:47:36;;;;;;;5.47;0.80;;;;;;;;;;5010020;28;20049;-71
2022/10/23 01:50:03;;;;;;;3.63;0.80;;;;;;;;;;5003628;28;20044;-72
2022/10/23 01:52:30;;;;;;;4.60;0.90;;;;;;;;;;5007280;28;20037;-72
2022/10/23 01:54:58;;;;;;;2.65;0.80;;;;;;;;;;5012857;28;20057;-72
2022/10/23 01:57:26;;;;;;;4.40;0.80;;;;;;;;;;4989401;28;20038;-72
2022/10/23 01:59:55;;;;;;;4.93;0.70;;;;;;;;;;5004819;28;20026;-72
2022/10/23 02:02:22;;;;;;;3.33;0.90;;;;;;;;;;5009019;28;20433;-72
2022/10/23 02:04:50;;;;;;;4.72;0.70;;;;;;;;;;5011974;28;20053;-72
2022/10/23 02:07:16;;;;;;;7.13;1.02;;;;;;;;;;5008104;28;20030;-72
2022/10/23 02:09:42;;;;;;;3.17;0.75;;;;;;;;;;5005075;28;20026;-72
2022/10/23 02:12:12;;;;;;;4.32;0.80;;;;;;;;;;5006170;28;20041;-72
2022/10/23 02:14:45;;;;;;;6.78;0.77;;;;;;;;;;5005471;28;20091;-72
2022/10/23 02:17:25;;;;;;;7.15;0.95;;;;;;;;;;5012911;28;20037;-73
2022/10/23 02:20:01;;;;;;;4.22;0.80;;;;;;;;;;5007075;28;20142;-72
2022/10/23 02:22:30;;;;;;;4.93;0.70;;;;;;;;;;5003215;28;20052;-72
2022/10/23 02:24:59;;;;;;;3.05;0.80;;;;;;;;;;5012755;28;20513;-72
2022/10/23 02:27:36;;;;;;;5.63;0.85;;;;;;;;;;5010684;28;20025;-72
2022/10/23 02:30:06;;;;;;;9.52;1.13;;;;;;;;;;5004311;28;20042;-72
2022/10/23 02:32:32;;;;;;;3.60;0.68;;;;;;;;;;5014237;28;20065;-72
2022/10/23 02:34:59;;;;;;;6.78;1.08;;;;;;;;;;5008690;28;20041;-72
2022/10/23 02:37:25;;;;;;;4.78;0.60;;;;;;;;;;5002789;28;20018;-72
2022/10/23 02:39:51;;;;;;;6.15;0.90;;;;;;;;;;5009058;28;20052;-72
2022/10/23 02:42:26;;;;;;;4.35;0.70;;;;;;;;;;5012011;28;20037;-72
2022/10/23 02:44:56;;;;;;;3.80;0.70;;;;;;;;;;5003804;28;20069;-72
2022/10/23 02:47:44;;;;;;;6.10;0.60;;;;;;;;;;5009111;28;20026;-72
2022/10/23 02:50:34;;;;;;;7.35;0.90;;;;;;;;;;5008951;28;20065;-72
2022/10/23 02:53:18;;;;;;;6.25;0.70;;;;;;;;;;5009527;28;20042;-72
2022/10/23 02:55:47;;;;;;;3.63;0.90;;;;;;;;;;5011120;28;20057;-72
2022/10/23 02:58:39;;;;;;;1.85;0.68;;;;;;;;;;5006952;28;20041;-72
2022/10/23 03:01:08;;;;;;;6.00;0.95;;;;;;;;;;4976956;28;20038;-72
2022/10/23 03:03:42;;;;;;;2.85;0.70;;;;;;;;;;5009350;28;20034;-73
2022/10/23 03:06:08;;;;;;;2.45;0.70;;;;;;;;;;5004626;28;20033;-72
2022/10/23 03:08:44;;;;;;;4.55;0.70;;;;;;;;;;5003388;28;20120;-72
2022/10/23 03:11:10;;;;;;;4.38;0.98;;;;;;;;;;5011200;28;20064;-71
2022/10/23 03:13:36;;;;;;;6.80;0.65;;;;;;;;;;5016992;28;20026;-72
2022/10/23 03:16:02;;;;;;;5.00;0.50;;;;;;;;;;5009184;28;20044;-72
2022/10/23 03:18:28;;;;;;;3.22;0.77;;;;;;;;;;5015062;28;20052;-72
2022/10/23 03:20:54;;;;;;;7.60;1.13;;;;;;;;;;5009472;28;20113;-72
2022/10/23 03:23:21;;;;;;;3.17;0.57;;;;;;;;;;5006903;28;20061;-73
2022/10/23 03:25:47;;;;;;;5.68;0.77;;;;;;;;;;5010166;28;20139;-72
2022/10/23 03:28:13;;;;;;;2.47;0.80;;;;;;;;;;5009998;28;20113;-72
2022/10/23 03:30:39;;;;;;;5.70;1.10;;;;;;;;;;5011923;28;20095;-72
2022/10/23 03:33:05;;;;;;;2.17;0.60;;;;;;;;;;5015056;28;20535;-72
2022/10/23 03:35:31;;;;;;;5.13;0.70;;;;;;;;;;5011630;28;20080;-71
2022/10/23 03:37:57;;;;;;;2.60;0.68;;;;;;;;;;5007632;28;20041;-72
2022/10/23 03:40:23;;;;;;;6.07;0.70;;;;;;;;;;5009194;28;20029;-71
2022/10/23 03:42:49;;;;;;;4.00;0.80;;;;;;;;;;5011207;28;20575;-72
2022/10/23 03:45:15;;;;;;;2.05;0.70;;;;;;;;;;5013830;28;20033;-72
2022/10/23 03:47:41;;;;;;;6.55;1.17;;;;;;;;;;5010711;28;20057;-72
2022/10/23 03:50:08;;;;;;;5.93;0.90;;;;;;;;;;5013965;28;20030;-72
2022/10/23 03:52:34;;;;;;;9.82;2.45;;;;;;;;;;5010246;28;20854;-72
2022/10/23 03:55:00;;;;;;;3.17;0.77;;;;;;;;;;5009393;28;20050;-72
2022/10/23 03:57:26;;;;;;;4.10;0.77;;;;;;;;;;5016706;28;20018;-71
2022/10/23 03:59:52;;;;;;;6.45;0.93;;;;;;;;;;5014454;28;20037;-72
2022/10/23 04:02:18;;;;;;;3.65;0.63;;;;;;;;;;5011022;28;20037;-72
2022/10/23 04:04:44;;;;;;;3.80;0.63;;;;;;;;;;5012023;28;20029;-72
2022/10/23 04:07:10;;;;;;;3.05;0.70;;;;;;;;;;5010491;28;20057;-72
2022/10/23 04:09:36;;;;;;;3.22;0.80;;;;;;;;;;5000310;28;20034;-72
2022/10/23 04:12:02;;;;;;;3.67;0.90;;;;;;;;;;5014718;28;20081;-72
2022/10/23 04:14:28;;;;;;;5.13;0.98;;;;;;;;;;5038753;22;20451;-72
2022/10/23 04:16:54;;;;;;;5.18;0.70;;;;;;;;;;5048368;28;20083;-72
2022/10/23 04:19:20;;;;;;;3.25;0.80;;;;;;;;;;5042802;28;20073;-72
2022/10/23 04:21:46;;;;;;;8.32;0.90;;;;;;;;;;5046297;28;20103;-71
2022/10/23 04:24:12;;;;;;;5.05;0.98;;;;;;;;;;5044164;28;20083;-72
2022/10/23 04:26:38;;;;;;;4.80;0.98;;;;;;;;;;5046720;28;20541;-72
2022/10/23 04:29:04;;;;;;;4.65;0.77;;;;;;;;;;5044606;28;20114;-73
2022/10/23 04:31:30;;;;;;;3.00;0.65;;;;;;;;;;5046280;28;20053;-72
2022/10/23 04:33:56;;;;;;;4.03;0.68;;;;;;;;;;5045680;28;20029;-72
2022/10/23 04:36:22;;;;;;;4.20;0.70;;;;;;;;;;5045108;28;20048;-71
2022/10/23 04:38:48;;;;;;;3.97;0.88;;;;;;;;;;5027859;28;20025;-71
2022/10/23 04:41:14;;;;;;;4.43;0.80;;;;;;;;;;5043051;28;20063;-72
2022/10/23 04:43:40;;;;;;;6.53;0.90;;;;;;;;;;5046288;28;20071;-72
2022/10/23 04:46:06;;;;;;;4.03;1.42;;;;;;;;;;5043557;28;20070;-72
2022/10/23 04:48:33;;;;;;;5.70;1.15;;;;;;;;;;5045110;28;20033;-72
2022/10/23 04:51:00;;;;;;;4.45;1.10;;;;;;;;;;5042257;28;20435;-72
2022/10/23 04:53:26;;;;;;;4.53;0.77;;;;;;;;;;5044259;28;20139;-72
2022/10/23 04:55:52;;;;;;;7.45;1.25;;;;;;;;;;5041864;28;20033;-72
2022/10/23 04:58:19;;;;;;;2.83;1.00;;;;;;;;;;5045735;28;20041;-72
2022/10/23 05:00:45;;;;;;;2.40;0.77;;;;;;;;;;5045319;28;20530;-72
2022/10/23 05:03:11;;;;;;;6.13;1.85;;;;;;;;;;5040179;28;20039;-72
2022/10/23 05:05:37;;;;;;;4.65;1.00;;;;;;;;;;5046402;28;20041;-72
2022/10/23 05:08:03;;;;;;;4.43;1.10;;;;;;;;;;5046160;28;20937;-72
2022/10/23 05:10:30;;;;;;;4.18;0.93;;;;;;;;;;5042035;28;20650;-72
2022/10/23 05:12:56;;;;;;;6.10;0.70;;;;;;;;;;5044111;28;20024;-72
2022/10/23 05:15:22;;;;;;;5.68;0.70;;;;;;;;;;5042099;28;20088;-73
2022/10/23 05:17:49;;;;;;;2.22;0.60;;;;;;;;;;5042989;28;20777;-71
2022/10/23 05:20:17;;;;;;;3.88;0.80;;;;;;;;;;5046226;28;20040;-72
2022/10/23 05:22:44;;;;;;;5.13;1.00;;;;;;;;;;5044708;28;20037;-72
2022/10/23 05:25:10;;;;;;;3.72;0.80;;;;;;;;;;5044256;28;20068;-72
2022/10/23 05:27:36;;;;;;;4.57;0.80;;;;;;;;;;5044547;28;20116;-72
2022/10/23 05:30:02;;;;;;;4.10;0.70;;;;;;;;;;5045400;28;20041;-73
2022/10/23 05:32:30;;;;;;;4.90;0.75;;;;;;;;;;5041461;28;20037;-72
2022/10/23 05:34:56;;;;;;;4.85;0.80;;;;;;;;;;5044152;28;20041;-72
2022/10/23 05:37:23;;;;;;;8.02;1.23;;;;;;;;;;5045336;28;20052;-71
2022/10/23 05:39:48;;;;;;;5.65;0.80;;;;;;;;;;5044109;28;20041;-72
2022/10/23 05:42:14;;;;;;;6.88;1.10;;;;;;;;;;5042425;28;20060;-72
2022/10/23 05:44:40;;;;;;;2.55;0.70;;;;;;;;;;5045700;28;20083;-72
2022/10/23 05:47:07;;;;;;;5.20;1.15;;;;;;;;;;5042272;28;20033;-72
2022/10/23 05:49:33;;;;;;;4.05;0.95;;;;;;;;;;5041985;28;20037;-72
2022/10/23 05:51:59;;;;;;;5.60;1.02;;;;;;;;;;5043999;28;20048;-71
2022/10/23 05:54:25;;;;;;;3.55;0.68;;;;;;;;;;5044736;28;20037;-72
2022/10/23 05:56:51;;;;;;;5.97;1.05;;;;;;;;;;5046160;28;20112;-72
2022/10/23 05:59:17;;;;;;;7.72;1.17;;;;;;;;;;5043288;28;20094;-72
2022/10/23 06:01:43;;;;;;;6.43;0.98;;;;;;;;;;5044430;28;20029;-72
2022/10/23 06:04:09;;;;;;;5.97;0.90;;;;;;;;;;5023741;28;20562;-72
2022/10/23 06:06:35;;;;;;;3.58;0.95;;;;;;;;;;5027670;28;20074;-71
2022/10/23 06:09:02;;;;;;;4.38;0.80;;;;;;;;;;5032791;28;20040;-72
2022/10/23 06:11:28;;;;;;;7.03;0.95;;;;;;;;;;5019408;28;20026;-72
2022/10/23 06:13:54;;;;;;;1.70;0.73;;;;;;;;;;5021361;28;20034;-72
2022/10/23 06:16:25;;;;;;;3.05;0.80;;;;;;;;;;5021188;28;20060;-71
2022/10/23 06:18:51;;;;;;;4.40;1.10;;;;;;;;;;5018331;28;20033;-72
2022/10/23 06:21:17;;;;;;;3.28;0.80;;;;;;;;;;5015660;28;20288;-72
2022/10/23 06:23:44;;;;;;;2.38;0.77;;;;;;;;;;5018380;28;20471;-72
2022/10/23 06:26:11;;;;;;;5.40;1.13;;;;;;;;;;5017972;28;20566;-72
2022/10/23 06:28:38;;;;;;;4.60;0.85;;;;;;;;;;5022293;28;20109;-72
2022/10/23 06:31:05;;;;;;;3.03;0.98;;;;;;;;;;5018348;28;20041;-72
2022/10/23 06:33:31;;;;;;;5.72;1.02;;;;;;;;;;5018688;28;20923;-72
2022/10/23 06:35:57;;;;;;;6.72;1.17;;;;;;;;;;5014324;28;20040;-72
2022/10/23 06:38:23;;;;;;;2.65;1.20;;;;;;;;;;5018619;28;20112;-72
2022/10/23 06:40:53;;;;;;;5.38;1.20;;;;;;;;;;5016214;28;20046;-72
2022/10/23 06:43:19;;;;;;;7.40;1.08;;;;;;;;;;5023200;28;20037;-73
2022/10/23 06:45:45;;;;;;;4.70;1.00;;;;;;;;;;5025852;28;20043;-72
2022/10/23 06:48:11;;;;;;;6.25;1.35;;;;;;;;;;5020951;28;20112;-72
2022/10/23 06:50:38;;;;;;;3.65;1.13;;;;;;;;;;5018160;28;20061;-72
2022/10/23 06:53:04;;;;;;;5.82;1.60;;;;;;;;;;5016568;28;20958;-72
2022/10/23 06:55:31;;;;;;;8.25;1.75;;;;;;;;;;5018086;28;20037;-72
2022/10/23 06:57:57;;;;;;;5.15;1.40;;;;;;;;;;5019842;28;20041;-72
2022/10/23 07:00:23;;;;;;;8.77;1.65;;;;;;;;;;5015950;28;20556;-72
2022/10/23 07:02:50;;;;;;;4.22;1.40;;;;;;;;;;5017373;28;20102;-72
2022/10/23 07:05:16;;;;;;;6.38;1.77;;;;;;;;;;5013939;28;20038;-72
2022/10/23 07:07:42;;;;;;;3.97;1.60;;;;;;;;;;5022653;28;20025;-72
2022/10/23 07:10:08;;;;;;;8.88;1.83;;;;;;;;;;5013061;28;20056;-72
2022/10/23 07:12:34;;;;;;;5.93;2.05;;;;;;;;;;5019237;28;20596;-72
2022/10/23 07:15:00;;;;;;;7.55;1.70;;;;;;;;;;5006357;28;20437;-72
2022/10/23 07:17:27;;;;;;;8.70;1.85;;;;;;;;;;5018145;28;20044;-72
2022/10/23 07:19:53;;;;;;;6.20;2.53;;;;;;;;;;5018391;28;20041;-72
2022/10/23 07:22:19;;;;;;;7.55;1.83;;;;;;;;;;5013752;28;20030;-72
2022/10/23 07:24:45;;;;;;;5.68;1.77;;;;;;;;;;5026836;28;20034;-72
2022/10/23 07:27:11;;;;;;;12.93;2.00;;;;;;;;;;5015706;28;20034;-71
2022/10/23 07:29:37;;;;;;;6.22;1.65;;;;;;;;;;4998233;28;20084;-72
2022/10/23 07:32:03;;;;;;;5.80;1.63;;;;;;;;;;5014831;28;20029;-72
2022/10/23 07:34:30;;;;;;;5.78;2.00;;;;;;;;;;5023416;28;20055;-71
2022/10/23 07:36:56;;;;;;;5.75;2.10;;;;;;;;;;5025944;28;20037;-71
2022/10/23 07:39:22;;;;;;;6.38;1.73;;;;;;;;;;5017036;28;20045;-72
2022/10/23 07:41:49;;;;;;;12.60;2.03;;;;;;;;;;5019211;28;20029;-72
2022/10/23 07:44:15;;;;;;;6.90;1.95;;;;;;;;;;5019576;28;20113;-72
2022/10/23 07:46:41;;;;;;;8.18;1.27;;;;;;;;;;5020867;28;20464;-72
2022/10/23 07:49:09;;;;;;;8.38;1.88;;;;;;;;;;5012902;28;20045;-72
2022/10/23 07:51:35;;;;;;;4.63;1.20;;;;;;;;;;5017374;28;20021;-72
2022/10/23 07:54:01;;;;;;;4.03;1.65;;;;;;;;;;5021761;28;20669;-72
2022/10/23 07:56:30;;;;;;;5.82;1.25;;;;;;;;;;5021828;28;20045;-71
2022/10/23 07:58:57;;;;;;;9.40;1.55;;;;;;;;;;5018796;28;20076;-72
2022/10/23 08:01:27;;;;;;;5.07;1.50;;;;;;;;;;5021205;28;20076;-72
2022/10/23 08:03:53;;;;;;;8.85;2.03;;;;;;;;;;5019122;28;20033;-72
2022/10/23 08:06:19;;;;;;;8.32;1.77;;;;;;;;;;5021860;28;20044;-72
2022/10/23 08:08:45;;;;;;;5.63;1.50;;;;;;;;;;5018754;28;20476;-71
2022/10/23 08:11:13;;;;;;;8.73;1.30;;;;;;;;;;5021345;28;20026;-72
2022/10/23 08:13:39;;;;;;;4.95;1.52;;;;;;;;;;5022234;28;20026;-72
2022/10/23 08:16:05;;;;;;;8.63;1.33;;;;;;;;;;5013650;28;20050;-72
2022/10/23 08:18:31;;;;;;;7.95;1.50;;;;;;;;;;5023480;28;20033;-72
2022/10/23 08:21:00;;;;;;;3.25;1.00;;;;;;;;;;5023099;28;20164;-72
2022/10/23 08:23:26;;;;;;;9.30;1.95;;;;;;;;;;5019086;28;20045;-72
2022/10/23 08:25:57;;;;;;;5.32;1.25;;;;;;;;;;5019328;28;20536;-72
2022/10/23 08:28:23;;;;;;;9.23;1.42;;;;;;;;;;5016428;28;20453;-72
2022/10/23 08:30:49;;;;;;;5.00;1.38;;;;;;;;;;5023899;28;20099;-72
2022/10/23 08:33:15;;;;;;;7.72;1.10;;;;;;;;;;5020692;28;20037;-72
2022/10/23 08:35:41;;;;;;;4.72;1.40;;;;;;;;;;5019229;28;20037;-72
2022/10/23 08:38:07;;;;;;;6.63;1.30;;;;;;;;;;5018047;28;20033;-72
2022/10/23 08:40:34;;;;;;;13.40;2.58;;;;;;;;;;5025508;28;20476;-72
2022/10/23 08:43:26;;;;;;;12.77;4.05;;;;;;;;;;5023964;28;20078;-72
2022/10/23 08:45:54;;;;;;;16.40;6.03;;;;;;;;;;5022341;28;20058;-71
2022/10/23 08:48:26;;;;;;;11.23;4.32;;;;;;;;;;5019125;28;20068;-72
2022/10/23 08:50:55;;;;;;;16.42;3.65;;;;;;;;;;5019293;28;20041;-72
2022/10/23 08:53:24;;;;;;;7.30;1.90;;;;;;;;;;5022281;28;20071;-72
2022/10/23 08:55:59;;;;;;;5.82;1.48;;;;;;;;;;5032185;28;20615;-72
2022/10/23 08:58:38;;;;;;;5.25;1.08;;;;;;;;;;5021969;28;20036;-72
2022/10/23 09:01:23;;;;;;;5.47;1.15;;;;;;;;;;5019799;28;20046;-71
2022/10/23 09:03:49;;;;;;;6.53;1.67;;;;;;;;;;5019001;28;20403;-72
2022/10/23 09:06:30;;;;;;;3.90;1.30;;;;;;;;;;5015424;28;20038;-71
2022/10/23 09:09:08;;;;;;;6.45;2.30;;;;;;;;;;5016252;28;20241;-71
2022/10/23 09:11:42;;;;;;;6.15;2.10;;;;;;;;;;5019622;28;20025;-71
2022/10/23 09:14:08;;;;;;;5.75;1.23;;;;;;;;;;5021635;28;20038;-71
2022/10/23 09:16:53;;;;;;;3.30;1.20;;;;;;;;;;5006344;28;20096;-72
2022/10/23 09:19:19;;;;;;;9.98;1.50;;;;;;;;;;5019789;28;20044;-71
2022/10/23 09:21:48;;;;;;;3.78;1.50;;;;;;;;;;5020704;28;20405;-72
2022/10/23 09:24:16;;;;;;;4.35;1.00;;;;;;;;;;5014316;28;20037;-71
2022/10/23 09:26:47;;;;;;;5.75;0.98;;;;;;;;;;5023607;28;20037;-72
2022/10/23 09:29:34;;;;;;;13.30;1.38;;;;;;;;;;5028694;28;20579;-71
2022/10/23 09:32:01;;;;;;;5.88;1.30;;;;;;;;;;5020514;28;20615;-72
2022/10/23 09:34:28;;;;;;;4.75;1.25;;;;;;;;;;5016374;28;20034;-71
2022/10/23 09:36:59;;;;;;;6.93;1.05;;;;;;;;;;5016409;28;20060;-72
2022/10/23 09:39:27;;;;;;;6.28;1.17;;;;;;;;;;5023981;28;20041;-71
2022/10/23 09:41:53;;;;;;;7.82;1.48;;;;;;;;;;5004093;28;20075;-72
2022/10/23 09:44:19;;;;;;;3.15;1.00;;;;;;;;;;5024179;28;20040;-71
2022/10/23 09:46:47;;;;;;;2.70;0.90;;;;;;;;;;5018503;28;20037;-71
2022/10/23 09:49:24;;;;;;;3.55;0.90;;;;;;;;;;5018558;28;20034;-71
2022/10/23 09:52:04;;;;;;;7.05;1.33;;;;;;;;;;5021341;28;20593;-72
2022/10/23 09:54:31;;;;;;;4.07;1.23;;;;;;;;;;5004434;28;20037;-72
2022/10/23 09:56:59;;;;;;;3.17;1.05;;;;;;;;;;5021681;28;20044;-72
2022/10/23 09:59:27;;;;;;;5.55;1.05;;;;;;;;;;5017441;28;20073;-72
2022/10/23 10:01:58;;;;;;;4.18;1.30;;;;;;;;;;5019686;28;20029;-71
2022/10/23 10:04:35;;;;;;;4.47;1.33;;;;;;;;;;5022911;28;20112;-72
2022/10/23 10:07:02;;;;;;;4.22;1.20;;;;;;;;;;5019944;28;20554;-72
2022/10/23 10:09:28;;;;;;;7.40;1.90;;;;;;;;;;5021266;28;20064;-72
2022/10/23 10:11:58;;;;;;;7.93;2.20;;;;;;;;;;5015426;28;20037;-71
2022/10/23 10:14:42;;;;;;;7.18;3.00;;;;;;;;;;5018381;28;20123;-72
2022/10/23 10:17:17;;;;;;;12.70;2.10;;;;;;;;;;5004096;28;247361;-71
2022/10/23 10:19:47;;;;;;;8.60;2.72;;;;;;;;;;5020617;28;20029;-71
2022/10/23 10:22:31;;;;;;;8.98;4.00;;;;;;;;;;5028447;28;20044;-71
2022/10/23 10:25:19;;;;;;;8.00;1.52;;;;;;;;;;5019415;28;20496;-72
2022/10/23 10:27:45;;;;;;;6.53;1.65;;;;;;;;;;5020292;28;20036;-72
2022/10/23 10:30:11;;;;;;;7.28;1.40;;;;;;;;;;5020082;28;20037;-72
2022/10/23 10:32:45;;;;;;;6.57;1.42;;;;;;;;;;5020812;28;20030;-72
2022/10/23 10:35:17;;;;;;;8.05;1.42;;;;;;;;;;5020798;28;20099;-72
2022/10/23 10:37:43;;;;;;;5.75;1.00;;;;;;;;;;5021394;28;20041;-71
2022/10/23 10:40:15;;;;;;;7.00;1.08;;;;;;;;;;5015536;28;20046;-72
2022/10/23 10:42:41;;;;;;;;;;;;;;;;;;5023640;28;20082;-72
2022/10/23 10:45:07;;;;;;;5.65;1.00;;;;;;;;;;5015837;28;19917;-72
2022/10/23 10:47:49;;;;;;;5.15;1.30;;;;;;;;;;5020155;28;20048;-71
2022/10/23 10:50:17;;;;;;;2.77;1.00;;;;;;;;;;5020739;28;20496;-72
2022/10/23 10:52:49;;;;;;;8.63;1.50;;;;;;;;;;5022848;28;20310;-72
2022/10/23 10:55:39;;;;;;;8.13;1.10;;;;;;;;;;5015889;28;20056;-71
2022/10/23 10:58:08;;;;;;;5.63;2.03;;;;;;;;;;5007254;28;20081;-72
2022/10/23 11:00:34;;;;;;;4.72;1.55;;;;;;;;;;5021514;28;20794;-72
2022/10/23 11:03:04;;;;;;;6.45;1.02;;;;;;;;;;5004388;28;20033;-71
2022/10/23 11:05:36;;;;;;;6.55;0.90;;;;;;;;;;5021002;28;20055;-72
2022/10/23 11:08:12;;;;;;;2.75;0.70;;;;;;;;;;5023288;28;20025;-71
2022/10/23 11:10:39;;;;;;;4.00;1.10;;;;;;;;;;5019135;28;20030;-72
2022/10/23 11:13:05;;;;;;;15.13;7.45;;;;;;;;;;5019122;28;20038;-71
2022/10/23 11:15:37;;;;;;;3.85;1.40;;;;;;;;;;5021332;28;20061;-72
2022/10/23 11:18:10;;;;;;;4.38;0.90;;;;;;;;;;5012769;28;20048;-72
2022/10/23 11:21:07;;;;;;;3.50;0.63;;;;;;;;;;5021188;28;20168;-71
2022/10/23 11:24:01;;;;;;;2.28;0.90;;;;;;;;;;4989270;28;20036;-72
2022/10/23 11:26:27;;;;;;;4.10;1.00;;;;;;;;;;5020708;28;20053;-71
2022/10/23 11:29:02;;;;;;;4.70;1.20;;;;;;;;;;5024280;28;20013;-72
2022/10/23 11:31:34;;;;;;;2.88;0.90;;;;;;;;;;5029623;28;20037;-72
2022/10/23 11:34:00;;;;;;;1.85;0.70;;;;;;;;;;5028862;28;20037;-71
2022/10/23 11:36:41;;;;;;;7.07;0.98;;;;;;;;;;5022345;28;20034;-72
2022/10/23 11:39:15;;;;;;;6.55;1.00;;;;;;;;;;5025721;28;20056;-71
2022/10/23 11:41:47;;;;;;;4.50;0.80;;;;;;;;;;5022137;28;20033;-72
2022/10/23 11:44:32;;;;;;;2.60;0.80;;;;;;;;;;5023342;28;20041;-71
2022/10/23 11:47:02;;;;;;;3.20;0.60;;;;;;;;;;5009167;28;20068;-71
2022/10/23 11:49:28;;;;;;;2.53;0.70;;;;;;;;;;5023673;28;20053;-72
2022/10/23 11:52:04;;;;;;;7.40;0.80;;;;;;;;;;5023255;28;20377;-72
2022/10/23 11:54:31;;;;;;;3.42;0.88;;;;;;;;;;5023597;28;20052;-72
2022/10/23 11:57:10;;;;;;;5.47;1.17;;;;;;;;;;5027335;28;20029;-71
2022/10/23 11:59:45;;;;;;;5.97;1.20;;;;;;;;;;5023927;28;20041;-71
2022/10/23 12:02:30;;;;;;;3.85;1.15;;;;;;;;;;5019631;28;20472;-72
2022/10/23 12:04:58;;;;;;;4.82;1.20;;;;;;;;;;5020470;28;20030;-71
2022/10/23 12:07:29;;;;;;;6.13;1.50;;;;;;;;;;5029635;28;20111;-72
2022/10/23 12:09:57;;;;;;;2.38;0.93;;;;;;;;;;5022670;28;20029;-72
2022/10/23 12:12:28;;;;;;;3.97;1.10;;;;;;;;;;5021439;28;20040;-71
2022/10/23 12:15:05;;;;;;;5.05;1.10;;;;;;;;;;5019523;28;20033;-72
2022/10/23 12:17:34;;;;;;;4.95;1.42;;;;;;;;;;5024118;28;20038;-72
2022/10/23 12:20:22;;;;;;;4.55;1.13;;;;;;;;;;5022099;28;20759;-72
2022/10/23 12:22:48;;;;;;;2.92;1.08;;;;;;;;;;5018757;28;20022;-72
2022/10/23 12:25:16;;;;;;;5.78;1.00;;;;;;;;;;5022027;28;20041;-72
2022/10/23 12:27:51;;;;;;;6.28;0.95;;;;;;;;;;5021850;28;20025;-72
2022/10/23 12:30:17;;;;;;;9.55;1.92;;;;;;;;;;5023954;28;20033;-71
2022/10/23 12:32:43;;;;;;;5.63;1.38;;;;;;;;;;5023327;28;20025;-72
2022/10/23 12:35:35;;;;;;;2.88;0.80;;;;;;;;;;5023155;28;20061;-72
2022/10/23 12:38:01;;;;;;;;;;;;;;;;;;5006034;28;20046;-71
2022/10/23 12:40:29;;;;;;;3.95;0.95;;;;;;;;;;5022923;28;19923;-72
2022/10/23 12:42:56;;;;;;;7.88;1.05;;;;;;;;;;5019210;28;20028;-71
2022/10/23 12:45:23;;;;;;;4.32;1.00;;;;;;;;;;5023013;28;20037;-71
2022/10/23 12:47:50;;;;;;;4.63;1.13;;;;;;;;;;5022834;28;20492;-71
2022/10/23 12:50:29;;;;;;;4.32;1.17;;;;;;;;;;5024691;28;20519;-72
2022/10/23 12:53:00;;;;;;;5.60;1.08;;;;;;;;;;5021854;28;20036;-72
2022/10/23 12:55:27;;;;;;;4.03;1.52;;;;;;;;;;5017509;28;20542;-71
2022/10/23 12:57:53;;;;;;;8.50;1.42;;;;;;;;;;5018855;28;20022;-72
2022/10/23 13:00:21;;;;;;;8.10;1.27;;;;;;;;;;5004897;28;20045;-72
2022/10/23 13:02:56;;;;;;;4.55;1.10;;;;;;;;;;5022722;28;20029;-72
2022/10/23 13:05:22;;;;;;;5.13;1.50;;;;;;;;;;5017335;28;20127;-72
2022/10/23 13:07:50;;;;;;;4.07;1.10;;;;;;;;;;5021420;28;20029;-72
2022/10/23 13:10:18;;;;;;;8.85;1.17;;;;;;;;;;5018809;28;20185;-72
2022/10/23 13:12:46;;;;;;;8.70;1.40;;;;;;;;;;5020148;28;20025;-71
2022/10/23 13:15:20;;;;;;;6.75;1.08;;;;;;;;;;5018264;28;20034;-71
2022/10/23 13:17:47;;;;;;;5.47;0.95;;;;;;;;;;5022900;28;20026;-71
2022/10/23 13:20:16;;;;;;;8.07;2.70;;;;;;;;;;5006750;28;20132;-72
2022/10/23 13:22:43;;;;;;;6.70;1.45;;;;;;;;;;5019617;28;20473;-72
2022/10/23 13:25:26;;;;;;;4.13;1.15;;;;;;;;;;5027496;28;20147;-71
2022/10/23 13:28:02;;;;;;;7.20;1.50;;;;;;;;;;5024726;28;20027;-72
2022/10/23 13:30:28;;;;;;;8.90;1.42;;;;;;;;;;5026584;28;20032;-72
2022/10/23 13:32:54;;;;;;;7.65;1.52;;;;;;;;;;5023417;28;20100;-71
2022/10/23 13:35:21;;;;;;;4.63;1.40;;;;;;;;;;5023066;28;20778;-72
2022/10/23 13:37:47;;;;;;;7.28;1.63;;;;;;;;;;5021402;28;20032;-72
2022/10/23 13:40:32;;;;;;;8.05;1.80;;;;;;;;;;5017756;28;20037;-71
2022/10/23 13:42:58;;;;;;;10.30;1.88;;;;;;;;;;5023768;28;20675;-71
2022/10/23 13:45:25;;;;;;;8.05;1.75;;;;;;;;;;5026577;28;20043;-72
2022/10/23 13:47:51;;;;;;;6.75;1.77;;;;;;;;;;5014898;28;20041;-72
2022/10/23 13:50:17;;;;;;;9.15;1.63;;;;;;;;;;5012664;28;20045;-72
2022/10/23 13:52:44;;;;;;;7.05;1.50;;;;;;;;;;5021823;28;20156;-72
2022/10/23 13:55:21;;;;;;;6.82;1.40;;;;;;;;;;5017312;28;20034;-72
2022/10/23 13:57:47;;;;;;;7.78;1.88;;;;;;;;;;5021721;28;20029;-71
2022/10/23 14:00:14;;;;;;;5.25;2.10;;;;;;;;;;5024689;28;20045;-72
2022/10/23 14:02:40;;;;;;;5.13;1.50;;;;;;;;;;5022363;28;20065;-72
2022/10/23 14:05:06;;;;;;;7.10;1.90;;;;;;;;;;5019080;28;20084;-72
2022/10/23 14:07:32;;;;;;;5.53;2.00;;;;;;;;;;5024921;28;20029;-71
2022/10/23 14:09:58;;;;;;;7.57;1.60;;;;;;;;;;5020758;28;20423;-72
2022/10/23 14:12:24;;;;;;;6.70;1.60;;;;;;;;;;5019218;28;20033;-72
2022/10/23 14:14:51;;;;;;;16.05;2.15;;;;;;;;;;5021296;28;20029;-72
2022/10/23 14:17:17;;;;;;;8.05;2.13;;;;;;;;;;5018725;28;20104;-72
2022/10/23 14:19:44;;;;;;;9.30;1.80;;;;;;;;;;5016879;28;20048;-72
2022/10/23 14:22:10;;;;;;;6.80;2.10;;;;;;;;;;5022724;28;20157;-71
2022/10/23 14:24:36;;;;;;;11.18;2.10;;;;;;;;;;5017737;28;20036;-72
2022/10/23 14:27:02;;;;;;;6.25;2.00;;;;;;;;;;5018301;28;20033;-72
2022/10/23 14:29:28;;;;;;;6.57;1.50;;;;;;;;;;5022514;28;20498;-72
2022/10/23 14:31:54;;;;;;;6.60;2.50;;;;;;;;;;5006173;28;20054;-71
2022/10/23 14:34:20;;;;;;;13.77;2.72;;;;;;;;;;5019378;28;20034;-72
2022/10/23 14:36:46;;;;;;;8.35;2.30;;;;;;;;;;5018862;28;20999;-72
2022/10/23 14:39:12;;;;;;;5.28;1.90;;;;;;;;;;5013807;28;20041;-71
2022/10/23 14:41:39;;;;;;;12.10;2.67;;;;;;;;;;5019985;28;20512;-72
2022/10/23 14:44:05;;;;;;;13.40;2.45;;;;;;;;;;5021094;28;20681;-71
2022/10/23 14:46:31;;;;;;;16.42;3.08;;;;;;;;;;5016163;28;20087;-71
2022/10/23 14:48:57;;;;;;;14.20;2.95;;;;;;;;;;5002370;28;20033;-72
2022/10/23 14:51:29;;;;;;;10.82;2.60;;;;;;;;;;5019258;28;20026;-72
2022/10/23 14:54:05;;;;;;;9.85;2.67;;;;;;;;;;5007043;28;20144;-71